ESS weather

Aniversario Estra Airport
El Espinal, Tolima Department, Colombia

Public forecast

Using degrees Celsius for public forecast. Weather courtesy of forecast.io.

Closest aviation weather report (METAR) to Aniversario Estra Airport

Report is more than 6 hours old.

Closest report is Santiago Vila Airport, 11.5 nm (21.2 km) NE. Retrieved 2019/09/14 18:00 UTC (3 months ago):

SKGI 141800Z 19013KT 170V260 9999 BKN090 35/17 A2978

Closest aviation forecast (TAF) to Aniversario Estra Airport

Forecast is more than 12 hours old.

Closest forecast is El Eden Airport, 54.9 nm (101.7 km) WNW. Retrieved 2017/01/12 18:15 UTC (3 years ago):

TAF TAF SKAR 121700Z 1218/1318 33006KT 9999 SCT017 SCT090 TEMPO 1221/1224 8000 VCSH SCT017TCU PROB40 TEMPO 1300/1300 7000 TSRA SCT013CB BECMG 1302/1303 VRB02KT TEMPO 1311/1313 7000 VCFG SCT015 TX26/1220Z TN18/1311Z